createdAt,value
2023-01-17T00:02:24.300Z,65.30
2023-01-17T00:05:20.851Z,63.55
2023-01-17T00:08:20.713Z,70.38
2023-01-17T00:10:58.392Z,65.53
2023-01-17T00:13:42.655Z,76.85
2023-01-17T00:16:20.944Z,64.72
2023-01-17T00:19:20.780Z,64.93
2023-01-17T00:22:14.695Z,66.05
2023-01-17T00:25:05.505Z,64.95
2023-01-17T00:27:49.031Z,71.88
2023-01-17T00:30:24.399Z,68.10
2023-01-17T00:33:00.036Z,72.78
2023-01-17T00:35:32.589Z,66.55
2023-01-17T00:38:15.229Z,65.88
2023-01-17T00:40:56.382Z,64.88
2023-01-17T00:43:58.010Z,68.30
2023-01-17T00:46:49.711Z,67.20
2023-01-17T00:49:51.445Z,73.22
2023-01-17T00:52:49.447Z,71.57
2023-01-17T00:55:49.651Z,69.30
2023-01-17T00:58:43.165Z,61.15
2023-01-17T01:01:37.177Z,70.70
2023-01-17T01:04:31.289Z,63.13
2023-01-17T01:07:37.598Z,67.25
2023-01-17T01:10:34.650Z,76.63
2023-01-17T01:13:19.985Z,66.93
2023-01-17T01:16:11.033Z,67.10
2023-01-17T01:19:11.448Z,67.30
2023-01-17T01:22:05.348Z,70.80
2023-01-17T01:25:09.990Z,68.75
2023-01-17T01:28:04.182Z,65.93
2023-01-17T01:31:00.675Z,68.30
2023-01-17T01:33:45.512Z,65.35
2023-01-17T01:36:36.739Z,65.43
2023-01-17T01:39:32.399Z,63.50
2023-01-17T01:42:36.990Z,68.07
2023-01-17T01:45:49.864Z,62.97
2023-01-17T01:48:38.434Z,68.75
2023-01-17T01:51:32.224Z,68.38
2023-01-17T01:54:21.025Z,66.10
2023-01-17T01:57:11.012Z,69.07
2023-01-17T02:00:00.199Z,74.85
2023-01-17T02:02:39.547Z,70.30
2023-01-17T02:05:16.240Z,65.43
2023-01-17T02:08:00.379Z,66.00
2023-01-17T02:10:44.818Z,70.90
2023-01-17T02:13:28.766Z,70.57
2023-01-17T02:16:35.094Z,71.30
2023-01-17T02:19:32.089Z,71.03
2023-01-17T02:22:46.387Z,72.15
2023-01-17T02:25:50.734Z,62.15
2023-01-17T02:28:49.765Z,62.55
2023-01-17T02:31:59.529Z,68.43
2023-01-17T02:35:03.313Z,63.25
2023-01-17T02:38:06.003Z,59.63
2023-01-17T02:40:48.979Z,65.97
2023-01-17T02:43:35.993Z,59.20
2023-01-17T02:46:09.911Z,60.65
2023-01-17T02:48:54.565Z,61.70
2023-01-17T02:52:06.324Z,61.70
2023-01-17T02:55:01.403Z,57.72
2023-01-17T02:57:58.671Z,60.13
2023-01-17T03:00:45.931Z,57.97
2023-01-17T03:03:51.418Z,62.65
2023-01-17T03:06:43.278Z,57.03
2023-01-17T03:09:25.220Z,63.80
2023-01-17T03:12:03.529Z,63.28
2023-01-17T03:14:47.755Z,63.70
2023-01-17T03:17:31.582Z,64.55
2023-01-17T03:20:36.168Z,63.45
2023-01-17T03:23:31.876Z,60.28
2023-01-17T03:26:07.989Z,55.03
2023-01-17T03:28:48.834Z,58.65
2023-01-17T03:31:29.099Z,52.97
2023-01-17T03:34:15.374Z,59.00
2023-01-17T03:36:55.678Z,53.80
2023-01-17T03:39:33.323Z,50.03
2023-01-17T03:42:14.013Z,54.88
2023-01-17T03:44:54.724Z,42.88
2023-01-17T03:47:37.535Z,39.75
2023-01-17T03:50:15.671Z,44.97
2023-01-17T03:53:04.033Z,50.28
2023-01-17T03:55:39.219Z,42.35
2023-01-17T03:58:27.859Z,48.65
2023-01-17T04:01:05.531Z,46.90
2023-01-17T04:03:46.885Z,42.40
2023-01-17T04:06:45.385Z,52.95
2023-01-17T04:09:25.762Z,52.90
2023-01-17T04:12:15.134Z,49.33
2023-01-17T04:14:55.302Z,45.70
2023-01-17T04:17:45.681Z,46.70
2023-01-17T04:20:38.488Z,42.25
2023-01-17T04:23:17.062Z,43.88
2023-01-17T04:26:03.883Z,45.70
2023-01-17T04:28:47.605Z,43.75
2023-01-17T04:31:28.842Z,48.38
2023-01-17T04:34:15.285Z,44.92
2023-01-17T04:36:53.651Z,47.50
2023-01-17T04:39:31.296Z,45.47
2023-01-17T04:42:15.461Z,39.65
2023-01-17T04:44:59.036Z,46.30
2023-01-17T04:47:50.213Z,42.85
2023-01-17T04:50:28.853Z,42.60
2023-01-17T04:53:14.693Z,47.70
2023-01-17T04:56:06.689Z,36.50
2023-01-17T04:58:42.945Z,49.10
2023-01-17T05:01:23.353Z,45.42
2023-01-17T05:04:05.114Z,45.22
2023-01-17T05:06:38.149Z,42.50
2023-01-17T05:09:13.001Z,39.30
2023-01-17T05:11:56.218Z,41.05
2023-01-17T05:14:42.435Z,41.45
2023-01-17T05:17:22.766Z,41.05
2023-01-17T05:20:09.829Z,42.05
2023-01-17T05:22:47.620Z,44.85
2023-01-17T05:25:22.823Z,47.53
2023-01-17T05:28:04.032Z,38.75
2023-01-17T05:30:38.355Z,38.15
2023-01-17T05:33:09.520Z,28.77
2023-01-17T05:35:52.460Z,27.25
2023-01-17T05:38:30.724Z,29.45
2023-01-17T05:41:08.844Z,30.52
2023-01-17T05:43:46.465Z,34.15
2023-01-17T05:46:18.120Z,29.80
2023-01-17T05:48:53.275Z,25.58
2023-01-17T05:51:33.577Z,26.98
2023-01-17T05:54:12.710Z,25.33
2023-01-17T05:56:56.129Z,32.55
2023-01-17T05:59:37.419Z,29.35
2023-01-17T06:02:15.948Z,24.15
2023-01-17T06:04:52.219Z,27.27
2023-01-17T06:07:38.873Z,27.20
2023-01-17T06:10:14.414Z,33.17
2023-01-17T06:13:12.373Z,32.88
2023-01-17T06:15:51.201Z,34.22
2023-01-17T06:18:42.978Z,31.08
2023-01-17T06:21:26.732Z,33.08
2023-01-17T06:23:57.996Z,27.15
2023-01-17T06:26:37.882Z,30.50
2023-01-17T06:29:13.810Z,29.17
2023-01-17T06:32:02.939Z,28.73
2023-01-17T06:34:38.431Z,28.83
2023-01-17T06:37:24.376Z,26.90
2023-01-17T06:40:05.011Z,27.17
2023-01-17T06:42:42.390Z,26.30
2023-01-17T06:45:22.519Z,26.15
2023-01-17T06:48:06.214Z,25.35
2023-01-17T06:53:44.839Z,32.22
2023-01-17T06:56:25.045Z,27.15
2023-01-17T06:59:05.872Z,33.97
2023-01-17T07:01:46.187Z,26.13
2023-01-17T07:04:24.272Z,26.10
2023-01-17T07:06:59.032Z,25.25
2023-01-17T07:09:42.288Z,29.83
2023-01-17T07:12:23.243Z,25.48
2023-01-17T07:15:03.709Z,26.55
2023-01-17T07:17:46.305Z,32.55
2023-01-17T07:20:21.605Z,28.30
2023-01-17T07:23:06.772Z,25.58
2023-01-17T07:25:44.913Z,31.75
2023-01-17T07:28:22.835Z,20.67
2023-01-17T07:31:07.018Z,24.27
2023-01-17T07:33:47.791Z,21.85
2023-01-17T07:36:22.871Z,21.92
2023-01-17T07:39:00.998Z,22.95
2023-01-17T07:41:33.130Z,22.38
2023-01-17T07:44:24.861Z,20.63
2023-01-17T07:47:02.616Z,18.52
2023-01-17T07:49:40.822Z,16.30
2023-01-17T07:52:13.113Z,13.25
2023-01-17T07:54:53.746Z,12.75
2023-01-17T07:57:42.499Z,11.38
2023-01-17T08:00:21.103Z,11.32
2023-01-17T08:03:06.823Z,11.23
2023-01-17T08:05:55.708Z,11.77
2023-01-17T08:08:42.072Z,9.57
2023-01-17T08:11:26.074Z,10.05
2023-01-17T08:14:19.375Z,7.80
2023-01-17T08:17:10.078Z,7.78
2023-01-17T08:19:52.247Z,8.80
2023-01-17T08:22:41.215Z,9.13
2023-01-17T08:25:22.154Z,9.85
2023-01-17T08:28:00.300Z,10.05
2023-01-17T08:30:44.053Z,8.75
2023-01-17T08:33:28.834Z,8.48
2023-01-17T08:36:12.738Z,9.52
2023-01-17T08:38:51.055Z,9.43
2023-01-17T08:41:37.644Z,9.30
2023-01-17T08:44:09.739Z,9.25
2023-01-17T08:46:46.983Z,7.78
2023-01-17T08:49:28.826Z,9.18
2023-01-17T08:52:07.728Z,8.07
2023-01-17T08:54:49.056Z,5.28
2023-01-17T08:57:29.212Z,5.82
2023-01-17T09:00:04.846Z,4.78
2023-01-17T09:02:43.735Z,4.53
2023-01-17T09:05:24.925Z,5.57
2023-01-17T09:08:08.736Z,7.75
2023-01-17T09:10:49.855Z,7.00
2023-01-17T09:13:36.602Z,5.57
2023-01-17T09:16:21.967Z,6.05
2023-01-17T09:19:04.147Z,6.45
2023-01-17T09:21:52.077Z,5.78
2023-01-17T09:24:27.109Z,4.70
2023-01-17T09:27:08.156Z,4.30
2023-01-17T09:29:46.557Z,4.15
2023-01-17T09:32:35.400Z,4.70
2023-01-17T09:35:13.847Z,4.78
2023-01-17T09:37:49.021Z,3.75
2023-01-17T09:40:28.662Z,3.92
2023-01-17T09:43:33.535Z,4.05
2023-01-17T09:46:39.032Z,3.25
2023-01-17T09:49:31.879Z,3.17
2023-01-17T09:52:14.491Z,3.85
2023-01-17T09:54:54.840Z,3.83
2023-01-17T09:58:02.147Z,3.03
2023-01-17T10:00:47.954Z,5.35
2023-01-17T10:03:57.323Z,3.30
2023-01-17T10:06:54.696Z,3.17
2023-01-17T10:09:45.709Z,2.90
2023-01-17T10:12:39.148Z,3.72
2023-01-17T10:15:45.904Z,2.88
2023-01-17T10:18:48.858Z,3.50
2023-01-17T10:21:35.709Z,3.00
2023-01-17T10:24:39.094Z,3.15
2023-01-17T10:27:32.967Z,3.20
2023-01-17T10:30:48.993Z,3.17
2023-01-17T10:33:58.505Z,2.97
2023-01-17T10:36:43.333Z,3.40
2023-01-17T10:39:32.107Z,3.00
2023-01-17T10:42:54.093Z,3.10
2023-01-17T10:45:43.917Z,2.83
2023-01-17T10:48:42.407Z,2.80
2023-01-17T10:51:43.821Z,3.55
2023-01-17T10:54:30.263Z,3.35
2023-01-17T10:57:16.648Z,2.95
2023-01-17T11:00:00.407Z,3.70
2023-01-17T11:02:43.236Z,3.05
2023-01-17T11:05:40.774Z,2.88
2023-01-17T11:08:21.817Z,2.50
2023-01-17T11:11:03.775Z,3.33
2023-01-17T11:13:41.917Z,4.70
2023-01-17T11:16:32.995Z,3.13
2023-01-17T11:19:20.450Z,4.00
2023-01-17T11:22:05.142Z,2.75
2023-01-17T11:24:51.293Z,3.25
2023-01-17T11:27:41.011Z,3.20
2023-01-17T11:30:26.310Z,3.47
2023-01-17T11:33:11.857Z,3.88
2023-01-17T11:35:58.772Z,3.30
2023-01-17T11:38:39.544Z,3.28
2023-01-17T11:41:26.015Z,3.28
2023-01-17T11:44:03.927Z,3.38
2023-01-17T11:46:39.072Z,3.97
2023-01-17T11:49:37.935Z,3.30
2023-01-17T11:52:39.257Z,2.92
2023-01-17T11:55:23.204Z,3.38
2023-01-17T12:00:57.330Z,4.00
2023-01-17T12:03:48.216Z,4.95
2023-01-17T12:06:57.104Z,4.70
2023-01-17T12:09:48.451Z,3.15
2023-01-17T12:12:54.163Z,3.17
2023-01-17T12:15:35.490Z,3.53
2023-01-17T12:18:33.887Z,5.07
2023-01-17T12:21:25.361Z,3.05
2023-01-17T12:24:45.301Z,4.80
2023-01-17T12:28:08.500Z,3.20
2023-01-17T12:31:08.978Z,3.40
2023-01-17T12:33:58.306Z,5.25
2023-01-17T12:36:59.976Z,4.35
2023-01-17T12:39:46.771Z,5.47
2023-01-17T12:42:35.437Z,4.03
2023-01-17T12:46:03.276Z,5.32
2023-01-17T12:48:47.591Z,7.78
2023-01-17T12:51:40.747Z,3.55
2023-01-17T12:54:31.680Z,7.00
2023-01-17T12:57:14.006Z,6.03
2023-01-17T13:00:07.864Z,6.40
2023-01-17T13:03:11.010Z,4.57
2023-01-17T13:05:53.560Z,6.82
2023-01-17T13:08:39.109Z,5.60
2023-01-17T13:11:46.679Z,4.65
2023-01-17T13:14:24.672Z,7.43
2023-01-17T13:17:56.316Z,9.05
2023-01-17T13:20:59.038Z,5.32
2023-01-17T13:24:06.622Z,5.60
2023-01-17T13:26:56.986Z,3.13
2023-01-17T13:29:59.270Z,5.03
2023-01-17T13:32:46.249Z,53.53
2023-01-17T13:35:37.231Z,34.72
2023-01-17T13:38:25.327Z,24.75
2023-01-17T13:41:19.843Z,13.60
2023-01-17T13:44:14.307Z,5.23
2023-01-17T13:47:04.272Z,4.35
2023-01-17T13:49:59.887Z,3.67
2023-01-17T13:52:41.756Z,5.68
2023-01-17T13:55:47.175Z,4.03
2023-01-17T13:59:12.131Z,4.25
2023-01-17T14:05:07.161Z,11.00
2023-01-17T14:07:57.873Z,25.05
2023-01-17T14:10:49.532Z,18.77
2023-01-17T14:13:38.407Z,14.07
2023-01-17T14:16:29.139Z,13.43
2023-01-17T14:19:07.919Z,15.93
2023-01-17T14:21:40.205Z,18.45
2023-01-17T14:24:23.775Z,27.55
2023-01-17T14:27:15.853Z,37.15
2023-01-17T14:32:39.689Z,29.83
2023-01-17T14:35:35.430Z,27.50
2023-01-17T14:38:31.647Z,19.15
2023-01-17T14:41:36.437Z,39.30
2023-01-17T14:44:20.215Z,31.00
2023-01-17T14:46:59.864Z,44.83
2023-01-17T14:49:35.607Z,49.45
2023-01-17T14:52:19.216Z,42.00
2023-01-17T14:55:17.619Z,37.08
2023-01-17T14:57:58.529Z,26.58
2023-01-17T15:00:43.402Z,18.27
2023-01-17T15:03:22.246Z,21.50
2023-01-17T15:06:04.856Z,25.55
2023-01-17T15:08:40.391Z,23.90
2023-01-17T15:11:38.835Z,28.73
2023-01-17T15:14:23.034Z,30.00
2023-01-17T15:17:17.896Z,31.00
2023-01-17T15:20:14.060Z,28.08
2023-01-17T15:22:54.749Z,22.27
2023-01-17T15:25:36.521Z,22.92
2023-01-17T15:28:18.716Z,27.67
2023-01-17T15:31:24.190Z,26.27
2023-01-17T15:34:10.964Z,22.23
2023-01-17T15:36:52.048Z,36.80
2023-01-17T15:39:31.201Z,36.28
2023-01-17T15:42:21.587Z,20.42
2023-01-17T15:45:05.210Z,16.60
2023-01-17T15:47:44.398Z,15.40
2023-01-17T15:50:32.904Z,16.65
2023-01-17T15:53:26.155Z,16.95
2023-01-17T15:56:24.048Z,19.50
2023-01-17T15:59:48.851Z,18.52
2023-01-17T16:02:49.030Z,29.55
2023-01-17T16:05:30.991Z,27.90
2023-01-17T16:08:23.986Z,25.48
2023-01-17T16:11:06.251Z,31.30
2023-01-17T16:13:47.817Z,25.35
2023-01-17T16:16:29.952Z,15.20
2023-01-17T16:19:06.237Z,22.92
2023-01-17T16:21:53.052Z,20.85
2023-01-17T16:24:28.814Z,17.75
2023-01-17T16:27:20.996Z,16.35
2023-01-17T16:29:56.605Z,13.68
2023-01-17T16:32:32.413Z,14.70
2023-01-17T16:35:19.696Z,20.00
2023-01-17T16:37:59.508Z,16.35
2023-01-17T16:40:40.612Z,21.33
2023-01-17T16:43:19.880Z,24.58
2023-01-17T16:46:03.539Z,23.45
2023-01-17T16:48:48.809Z,23.65
2023-01-17T16:51:37.410Z,27.52
2023-01-17T16:54:13.078Z,26.27
2023-01-17T16:56:51.239Z,22.08
2023-01-17T16:59:45.914Z,15.00
2023-01-17T17:02:35.657Z,15.38
2023-01-17T17:05:19.827Z,11.30
2023-01-17T17:07:57.680Z,13.32
2023-01-17T17:10:44.604Z,17.58
2023-01-17T17:13:31.273Z,14.40
2023-01-17T17:16:13.896Z,23.95
2023-01-17T17:18:56.777Z,19.42
2023-01-17T17:21:45.491Z,19.88
2023-01-17T17:24:21.078Z,22.33
2023-01-17T17:26:58.679Z,24.40
2023-01-17T17:29:36.264Z,25.63
2023-01-17T17:32:23.508Z,19.00
2023-01-17T17:35:00.850Z,19.08
2023-01-17T17:37:38.015Z,24.40
2023-01-17T17:40:21.222Z,19.58
2023-01-17T17:43:07.561Z,22.48
2023-01-17T17:45:48.578Z,19.10
2023-01-17T17:48:26.195Z,16.65
2023-01-17T17:51:01.545Z,15.05
2023-01-17T17:53:36.752Z,20.58
2023-01-17T17:56:10.859Z,17.83
2023-01-17T17:58:51.799Z,15.32
2023-01-17T18:01:26.221Z,17.42
2023-01-17T18:04:07.580Z,18.10
2023-01-17T18:06:50.991Z,14.65
2023-01-17T18:09:29.706Z,20.05
2023-01-17T18:12:11.479Z,13.65
2023-01-17T18:14:49.501Z,13.00
2023-01-17T18:17:33.757Z,16.58
2023-01-17T18:20:11.506Z,17.92
2023-01-17T18:22:57.177Z,35.17
2023-01-17T18:25:36.386Z,43.38
2023-01-17T18:28:11.995Z,27.88
2023-01-17T18:30:57.261Z,17.23
2023-01-17T18:33:34.787Z,17.05
2023-01-17T18:36:24.846Z,15.07
2023-01-17T18:39:10.277Z,16.33
2023-01-17T18:41:49.205Z,16.15
2023-01-17T18:44:33.990Z,16.48
2023-01-17T18:47:15.216Z,16.02
2023-01-17T18:50:10.011Z,16.00
2023-01-17T18:52:51.119Z,15.30
2023-01-17T18:55:26.297Z,17.10
2023-01-17T18:58:14.680Z,23.23
2023-01-17T19:00:58.602Z,28.98
2023-01-17T19:03:42.215Z,56.72
2023-01-17T19:06:21.947Z,35.90
2023-01-17T19:09:03.786Z,17.30
2023-01-17T19:11:43.107Z,16.52
2023-01-17T19:14:20.881Z,13.70
2023-01-17T19:17:01.312Z,15.27
2023-01-17T19:19:51.295Z,12.48
2023-01-17T19:22:33.485Z,9.63
2023-01-17T19:25:08.869Z,12.13
2023-01-17T19:27:58.273Z,11.57
2023-01-17T19:30:42.287Z,11.77
2023-01-17T19:36:06.723Z,9.73
2023-01-17T19:39:03.860Z,9.20
2023-01-17T19:41:54.347Z,9.82
2023-01-17T19:44:52.031Z,10.75
2023-01-17T19:47:49.044Z,8.80
2023-01-17T19:50:29.134Z,10.10
2023-01-17T19:53:13.170Z,12.60
2023-01-17T19:55:54.829Z,10.90
2023-01-17T19:58:38.141Z,11.15
2023-01-17T20:01:28.092Z,8.75
2023-01-17T20:04:09.924Z,13.80
2023-01-17T20:06:56.824Z,10.77
2023-01-17T20:09:46.705Z,9.98
2023-01-17T20:12:33.605Z,9.68
2023-01-17T20:15:12.705Z,11.77
2023-01-17T20:18:02.748Z,18.45
2023-01-17T20:20:56.323Z,10.77
2023-01-17T20:23:50.715Z,10.27
2023-01-17T20:26:44.811Z,11.90
2023-01-17T20:32:17.336Z,11.43
2023-01-17T20:35:09.683Z,13.45
2023-01-17T20:37:57.222Z,12.15
2023-01-17T20:40:35.108Z,13.70
2023-01-17T20:43:28.743Z,12.88
2023-01-17T20:46:08.953Z,13.20
2023-01-17T20:49:01.223Z,12.30
2023-01-17T20:51:42.041Z,10.98
2023-01-17T20:57:03.143Z,9.13
2023-01-17T20:59:51.887Z,18.95
2023-01-17T21:02:32.840Z,8.70
2023-01-17T21:05:13.815Z,9.85
2023-01-17T21:08:03.937Z,10.65
2023-01-17T21:10:50.751Z,9.82
2023-01-17T21:13:41.747Z,8.93
2023-01-17T21:16:31.958Z,10.10
2023-01-17T21:19:27.686Z,7.63
2023-01-17T21:22:19.020Z,8.55
2023-01-17T21:25:03.353Z,7.63
2023-01-17T21:27:47.152Z,8.80
2023-01-17T21:33:14.358Z,7.93
2023-01-17T21:35:55.502Z,10.18
2023-01-17T21:38:36.183Z,10.05
2023-01-17T21:41:22.466Z,8.57
2023-01-17T21:44:27.442Z,9.77
2023-01-17T21:47:03.005Z,10.23
2023-01-17T21:49:54.318Z,10.07
2023-01-17T21:52:45.263Z,10.30
2023-01-17T21:55:40.006Z,12.50
2023-01-17T21:58:38.674Z,12.50
2023-01-17T22:01:29.508Z,12.38
2023-01-17T22:04:16.114Z,12.15
2023-01-17T22:06:55.591Z,15.23
2023-01-17T22:09:49.858Z,16.05
2023-01-17T22:12:46.061Z,18.00
2023-01-17T22:15:34.083Z,12.52
2023-01-17T22:18:22.776Z,12.27
2023-01-17T22:21:14.618Z,17.55
2023-01-17T22:24:01.983Z,16.40
2023-01-17T22:26:48.190Z,15.45
2023-01-17T22:32:15.799Z,9.55
2023-01-17T22:34:58.770Z,16.73
2023-01-17T22:37:43.799Z,14.30
2023-01-17T22:40:30.029Z,12.43
2023-01-17T22:43:11.739Z,12.80
2023-01-17T22:46:09.427Z,14.90
2023-01-17T22:48:58.723Z,13.25
2023-01-17T22:51:35.466Z,13.75
2023-01-17T22:54:28.313Z,13.95
2023-01-17T22:57:09.124Z,16.25
2023-01-17T22:59:57.606Z,20.92
2023-01-17T23:02:42.764Z,12.35
2023-01-17T23:05:22.805Z,11.60
2023-01-17T23:08:20.808Z,31.27
2023-01-17T23:11:16.937Z,12.63
2023-01-17T23:14:08.016Z,11.30
2023-01-17T23:19:59.987Z,10.68
2023-01-17T23:22:44.243Z,11.82
2023-01-17T23:25:38.465Z,12.70
2023-01-17T23:28:24.539Z,23.45
2023-01-17T23:31:11.841Z,27.60
2023-01-17T23:34:00.637Z,16.23
2023-01-17T23:36:47.301Z,24.60
2023-01-17T23:39:35.915Z,14.55
2023-01-17T23:42:34.769Z,15.45
2023-01-17T23:45:14.188Z,25.55
2023-01-17T23:48:06.067Z,44.60
2023-01-17T23:50:46.332Z,21.15
2023-01-17T23:53:39.703Z,16.17
2023-01-17T23:56:36.362Z,24.02
2023-01-17T23:59:22.693Z,19.50
